Terminal Aerodrome Forecast
Issued by NWS

Home | Current Version | Previous Version | Text Only | Print | Product List | Glossary Off
Versions: 1 2 3 4 5 6 7 8 9 10 11 12 13 14 15 16 17 18 19 20 21 22 23 24 25 26 27 28 29 30 31 32

000
FTUS45 KGGW 291138
TAFOLF
TAF
KOLF 291138Z 2912/3012 00000KT 3SM FU SCT027
     FM291800 23006KT 6SM FU SCT250
     FM300000 20007KT P6SM SCT250
     FM300300 VRB03KT P6SM SCT200=

USA.gov is the U.S. government's official web portal to all federal, state and local government web resources and services.